Time;durP1;ratioP1;P1;durP2;ratioP2;P2;SDS_P1;SDS_P2;PMS_P1;PMS_P2;Temp;Humidity;BMP_temperature;BMP_pressure;BME280_temperature;BME280_humidity;BME280_pressure;Samples;Min_cycle;Max_cycle;Signal;HPM_P1;HPM_P2
2023/05/09 00:02:08;;;;;;;32.85;18.58;;;15.60;99.90;;;;;;5015459;28;20045;-81
2023/05/09 00:04:34;;;;;;;36.35;19.58;;;15.70;99.90;;;;;;5014613;28;20990;-80
2023/05/09 00:07:00;;;;;;;34.45;18.70;;;15.70;99.90;;;;;;5015204;28;20506;-82
2023/05/09 00:09:25;;;;;;;32.55;19.15;;;15.70;99.90;;;;;;5011704;28;20021;-82
2023/05/09 00:11:51;;;;;;;36.15;19.75;;;15.70;99.90;;;;;;5012276;28;20095;-81
2023/05/09 00:14:17;;;;;;;36.03;20.20;;;15.70;99.90;;;;;;5013854;28;20137;-81
2023/05/09 00:16:46;;;;;;;37.08;19.50;;;15.70;99.90;;;;;;5013557;28;20045;-82
2023/05/09 00:19:11;;;;;;;33.38;19.27;;;15.70;99.90;;;;;;5012841;28;20631;-82
2023/05/09 00:21:37;;;;;;;35.60;20.40;;;15.70;99.90;;;;;;5011241;28;20489;-82
2023/05/09 00:24:04;;;;;;;35.90;20.38;;;15.70;99.90;;;;;;5012548;28;20026;-81
2023/05/09 00:26:29;;;;;;;34.63;19.90;;;15.70;99.90;;;;;;5012203;28;20040;-81
2023/05/09 00:28:55;;;;;;;37.05;19.38;;;15.70;99.90;;;;;;5014439;28;20025;-81
2023/05/09 00:31:20;;;;;;;36.05;19.85;;;15.70;99.90;;;;;;5012466;28;20087;-81
2023/05/09 00:33:46;;;;;;;36.13;21.65;;;15.70;99.90;;;;;;5012741;28;20041;-82
2023/05/09 00:36:11;;;;;;;36.28;21.17;;;15.70;99.90;;;;;;5013170;28;20026;-81
2023/05/09 00:38:37;;;;;;;39.22;22.38;;;15.70;99.90;;;;;;5012804;28;20592;-82
2023/05/09 00:41:02;;;;;;;40.88;21.95;;;15.60;99.90;;;;;;5014379;28;20562;-82
2023/05/09 00:43:29;;;;;;;37.22;21.73;;;15.60;99.90;;;;;;5013435;28;20087;-82
2023/05/09 00:45:54;;;;;;;38.25;21.30;;;15.60;99.90;;;;;;5012956;28;20541;-81
2023/05/09 00:48:21;;;;;;;40.40;22.80;;;15.60;99.90;;;;;;5027699;28;20033;-82
2023/05/09 00:50:51;;;;;;;41.55;23.95;;;15.60;99.90;;;;;;5011362;28;20033;-82
2023/05/09 00:53:18;;;;;;;40.13;22.10;;;15.50;99.90;;;;;;5012362;28;20694;-82
2023/05/09 00:55:44;;;;;;;40.90;21.48;;;15.50;99.90;;;;;;5013847;28;20111;-80
2023/05/09 00:58:10;;;;;;;42.90;22.58;;;15.60;99.90;;;;;;5013189;28;20415;-81
2023/05/09 01:00:36;;;;;;;43.17;22.45;;;15.60;99.90;;;;;;5012268;28;20037;-82
2023/05/09 01:03:02;;;;;;;39.42;21.30;;;15.60;99.90;;;;;;5013072;28;20479;-82
2023/05/09 01:05:38;;;;;;;40.10;22.27;;;15.60;99.90;;;;;;5013671;28;20117;-82
2023/05/09 01:08:19;;;;;;;38.38;20.08;;;15.60;99.90;;;;;;5014082;28;20034;-82
2023/05/09 01:11:08;;;;;;;38.17;20.17;;;15.60;99.90;;;;;;5013764;28;20052;-82
2023/05/09 01:14:11;;;;;;;41.63;21.80;;;15.60;99.90;;;;;;5013557;28;20054;-81
2023/05/09 01:16:46;;;;;;;41.58;20.80;;;15.60;99.90;;;;;;5011655;28;20506;-82
2023/05/09 01:19:49;;;;;;;35.85;20.10;;;15.60;99.90;;;;;;5013156;28;20056;-82
2023/05/09 01:22:17;;;;;;;36.53;19.23;;;15.60;99.90;;;;;;5014614;28;20049;-81
2023/05/09 01:25:01;;;;;;;37.20;19.83;;;15.60;99.90;;;;;;5030569;28;20677;-82
2023/05/09 01:27:43;;;;;;;38.67;21.27;;;15.60;99.90;;;;;;5012556;28;20029;-82
2023/05/09 01:30:11;;;;;;;38.50;20.85;;;15.60;99.90;;;;;;5014300;28;20037;-82
2023/05/09 01:32:39;;;;;;;38.58;20.33;;;15.60;99.90;;;;;;5016145;28;20036;-81
2023/05/09 01:35:07;;;;;;;38.45;21.88;;;15.60;99.90;;;;;;5018841;28;20030;-82
2023/05/09 01:37:34;;;;;;;42.13;22.55;;;15.60;99.90;;;;;;5017930;28;20021;-82
2023/05/09 01:40:07;;;;;;;43.22;21.90;;;15.60;99.90;;;;;;5019642;28;20026;-82
2023/05/09 01:42:57;;;;;;;42.77;23.10;;;15.70;99.90;;;;;;5016805;28;20096;-81
2023/05/09 01:45:23;;;;;;;39.85;21.05;;;15.60;99.90;;;;;;5014836;28;21377;-81
2023/05/09 01:47:49;;;;;;;41.83;21.85;;;15.60;99.90;;;;;;5017358;28;20034;-81
2023/05/09 01:50:17;;;;;;;43.55;22.63;;;15.70;99.90;;;;;;5016821;28;20680;-81
2023/05/09 01:52:46;;;;;;;43.17;22.55;;;15.70;99.90;;;;;;5017873;28;20044;-82
2023/05/09 01:55:14;;;;;;;43.72;24.05;;;15.70;99.90;;;;;;5018256;28;20108;-81
2023/05/09 01:57:42;;;;;;;42.97;23.88;;;15.70;99.90;;;;;;5017272;28;20120;-82
2023/05/09 02:00:09;;;;;;;42.55;22.73;;;15.60;99.90;;;;;;5017129;28;20395;-82
2023/05/09 02:02:36;;;;;;;45.00;22.83;;;15.60;99.90;;;;;;5016735;28;20036;-82
2023/05/09 02:05:01;;;;;;;43.55;24.10;;;15.60;99.90;;;;;;5016460;28;20026;-82
2023/05/09 02:07:28;;;;;;;45.10;24.25;;;15.60;99.90;;;;;;5016420;28;20080;-81
2023/05/09 02:09:55;;;;;;;44.97;23.85;;;15.60;99.90;;;;;;5017597;28;20050;-82
2023/05/09 02:12:25;;;;;;;42.92;22.83;;;15.60;99.90;;;;;;5017369;28;20030;-81
2023/05/09 02:14:50;;;;;;;44.88;22.65;;;15.50;99.90;;;;;;5016183;28;20041;-82
2023/05/09 02:17:16;;;;;;;44.22;22.63;;;15.50;99.90;;;;;;5016219;28;20728;-81
2023/05/09 02:19:42;;;;;;;44.25;23.45;;;15.50;99.90;;;;;;5016525;28;20026;-82
2023/05/09 02:22:09;;;;;;;47.65;25.85;;;15.50;99.90;;;;;;5016082;28;20056;-81
2023/05/09 02:24:35;;;;;;;45.55;25.77;;;15.50;99.90;;;;;;5017106;28;20035;-82
2023/05/09 02:27:03;;;;;;;44.30;24.15;;;15.40;99.90;;;;;;5016718;28;20021;-80
2023/05/09 02:29:38;;;;;;;46.63;25.67;;;15.40;99.90;;;;;;5015076;28;20033;-81
2023/05/09 02:32:07;;;;;;;49.67;26.92;;;15.30;99.90;;;;;;5017461;28;20014;-81
2023/05/09 02:34:34;;;;;;;42.75;23.52;;;15.30;99.90;;;;;;5031769;28;20045;-82
2023/05/09 02:37:00;;;;;;;45.20;24.42;;;15.30;99.90;;;;;;5016780;28;20021;-81
2023/05/09 02:39:25;;;;;;;45.13;25.58;;;15.30;99.90;;;;;;5016745;28;20053;-82
2023/05/09 02:41:51;;;;;;;47.08;23.90;;;15.30;99.90;;;;;;5017223;28;20036;-82
2023/05/09 02:44:16;;;;;;;45.63;24.92;;;15.30;99.90;;;;;;5015350;28;20037;-81
2023/05/09 02:46:42;;;;;;;53.38;27.77;;;15.30;99.90;;;;;;5015200;28;20108;-82
2023/05/09 02:49:07;;;;;;;58.30;28.63;;;15.30;99.90;;;;;;5015914;28;20577;-81
2023/05/09 02:51:33;;;;;;;50.08;26.55;;;15.30;99.90;;;;;;5016078;28;20518;-81
2023/05/09 02:53:58;;;;;;;50.55;27.48;;;15.30;99.90;;;;;;5016717;28;20402;-81
2023/05/09 02:56:24;;;;;;;46.63;24.17;;;15.30;99.90;;;;;;5017518;28;20033;-81
2023/05/09 02:58:50;;;;;;;48.08;25.80;;;15.30;99.90;;;;;;5016313;28;20026;-82
2023/05/09 03:01:17;;;;;;;54.40;28.42;;;15.30;99.90;;;;;;5015834;28;20100;-81
2023/05/09 03:03:42;;;;;;;62.33;31.30;;;15.20;99.90;;;;;;5015194;28;20590;-82
2023/05/09 03:06:08;;;;;;;62.83;32.15;;;15.20;99.90;;;;;;5016768;28;20113;-81
2023/05/09 03:08:34;;;;;;;55.13;29.08;;;15.20;99.90;;;;;;5014665;28;20469;-81
2023/05/09 03:10:59;;;;;;;56.05;29.73;;;15.20;99.90;;;;;;5016739;28;20068;-82
2023/05/09 03:13:25;;;;;;;56.80;28.83;;;15.10;99.90;;;;;;5016530;28;20025;-82
2023/05/09 03:15:51;;;;;;;64.10;32.88;;;15.10;99.90;;;;;;5015733;28;20037;-82
2023/05/09 03:18:17;;;;;;;68.70;34.28;;;15.10;99.90;;;;;;5015126;28;20565;-82
2023/05/09 03:20:43;;;;;;;60.40;30.58;;;15.10;99.90;;;;;;5014887;28;20044;-81
2023/05/09 03:23:09;;;;;;;54.53;28.38;;;15.10;99.90;;;;;;5015489;28;20033;-81
2023/05/09 03:25:34;;;;;;;52.88;28.95;;;15.10;99.90;;;;;;5015879;28;20048;-81
2023/05/09 03:28:00;;;;;;;53.83;27.80;;;15.10;99.90;;;;;;5017237;28;20030;-82
2023/05/09 03:30:26;;;;;;;50.15;25.77;;;15.10;99.90;;;;;;5014296;28;20062;-82
2023/05/09 03:32:51;;;;;;;53.90;28.33;;;15.10;99.90;;;;;;5014850;28;20030;-82
2023/05/09 03:35:17;;;;;;;50.63;27.60;;;15.20;99.90;;;;;;5015326;28;20033;-82
2023/05/09 03:37:42;;;;;;;53.72;28.92;;;15.10;99.90;;;;;;5015693;28;20026;-82
2023/05/09 03:40:08;;;;;;;56.20;28.75;;;15.10;99.90;;;;;;5015653;28;20180;-82
2023/05/09 03:42:34;;;;;;;55.80;29.50;;;15.10;99.90;;;;;;5016076;28;20447;-83
2023/05/09 03:45:00;;;;;;;49.33;27.08;;;15.10;99.90;;;;;;5014399;28;20032;-82
2023/05/09 03:47:25;;;;;;;50.40;26.65;;;15.10;99.90;;;;;;5013619;28;20578;-82
2023/05/09 03:49:52;;;;;;;47.03;25.80;;;15.10;99.90;;;;;;5015899;28;20017;-83
2023/05/09 03:52:18;;;;;;;46.53;25.27;;;15.10;99.90;;;;;;5013668;28;20029;-81
2023/05/09 03:54:43;;;;;;;53.53;26.83;;;15.10;99.90;;;;;;5015227;28;20502;-82
2023/05/09 03:57:09;;;;;;;52.25;28.88;;;15.10;99.90;;;;;;5016110;28;20563;-81
2023/05/09 03:59:34;;;;;;;50.10;26.67;;;15.10;99.90;;;;;;5030593;28;20025;-81
2023/05/09 04:02:00;;;;;;;43.95;24.90;;;15.10;99.90;;;;;;5014146;28;20357;-80
2023/05/09 04:04:26;;;;;;;54.45;29.38;;;15.10;99.90;;;;;;5014348;28;20090;-82
2023/05/09 04:06:51;;;;;;;48.58;27.00;;;15.00;99.90;;;;;;5014242;28;20479;-82
2023/05/09 04:09:17;;;;;;;52.40;29.23;;;15.00;99.90;;;;;;5014835;28;20030;-82
2023/05/09 04:11:43;;;;;;;51.30;28.20;;;15.00;99.90;;;;;;5015294;28;20068;-82
2023/05/09 04:14:09;;;;;;;45.72;25.58;;;15.00;99.90;;;;;;5014576;28;20500;-82
2023/05/09 04:16:34;;;;;;;50.00;26.27;;;15.00;99.90;;;;;;5014521;28;20040;-81
2023/05/09 04:19:00;;;;;;;45.35;24.13;;;15.00;99.90;;;;;;5014662;28;20025;-81
2023/05/09 04:21:25;;;;;;;42.88;23.48;;;15.00;99.90;;;;;;5014416;28;20666;-82
2023/05/09 04:23:51;;;;;;;39.45;21.50;;;14.90;99.90;;;;;;5014790;28;20116;-81
2023/05/09 04:26:17;;;;;;;36.63;21.58;;;15.00;99.90;;;;;;5015306;28;20355;-81
2023/05/09 04:28:43;;;;;;;38.13;21.60;;;15.00;99.90;;;;;;5015007;28;20033;-81
2023/05/09 04:31:08;;;;;;;32.53;19.10;;;15.00;99.90;;;;;;5013571;28;21192;-82
2023/05/09 04:33:35;;;;;;;40.35;22.15;;;15.00;99.90;;;;;;5013488;28;20319;-82
2023/05/09 04:36:00;;;;;;;36.85;22.17;;;15.00;99.90;;;;;;5013684;28;20026;-82
2023/05/09 04:38:26;;;;;;;41.63;22.02;;;15.00;99.90;;;;;;5014279;28;20395;-82
2023/05/09 04:40:52;;;;;;;41.80;24.13;;;15.00;99.90;;;;;;5015941;28;20033;-82
2023/05/09 04:43:17;;;;;;;40.35;25.55;;;15.00;99.90;;;;;;5015613;28;20383;-82
2023/05/09 04:45:44;;;;;;;47.10;26.90;;;15.00;99.90;;;;;;5014491;28;20033;-82
2023/05/09 04:48:10;;;;;;;43.70;25.75;;;14.90;99.90;;;;;;5014386;28;20058;-82
2023/05/09 04:50:36;;;;;;;47.92;28.67;;;14.90;99.90;;;;;;5013116;28;20543;-82
2023/05/09 04:53:01;;;;;;;48.78;28.58;;;14.90;99.90;;;;;;5014169;28;20034;-82
2023/05/09 04:55:27;;;;;;;44.85;26.40;;;14.90;99.90;;;;;;5013824;28;20045;-82
2023/05/09 04:57:52;;;;;;;45.58;26.98;;;14.90;99.90;;;;;;5012879;28;20026;-82
2023/05/09 05:00:18;;;;;;;40.17;25.00;;;14.90;99.90;;;;;;5015930;28;20041;-82
2023/05/09 05:02:44;;;;;;;39.15;23.08;;;15.00;99.90;;;;;;5010250;28;20053;-81
2023/05/09 05:05:10;;;;;;;39.35;22.92;;;15.00;99.90;;;;;;5013452;28;20434;-82
2023/05/09 05:07:36;;;;;;;39.83;22.58;;;15.00;99.90;;;;;;5015809;28;20466;-82
2023/05/09 05:10:02;;;;;;;36.30;21.80;;;15.10;99.90;;;;;;5015297;28;20048;-83
2023/05/09 05:12:27;;;;;;;35.13;22.45;;;15.10;99.90;;;;;;5015855;28;20501;-82
2023/05/09 05:14:53;;;;;;;43.28;26.08;;;15.10;99.90;;;;;;5018854;28;20073;-82
2023/05/09 05:17:18;;;;;;;40.70;24.77;;;15.10;99.90;;;;;;5017314;28;20030;-82
2023/05/09 05:19:44;;;;;;;43.22;26.77;;;15.10;99.90;;;;;;5017261;28;20030;-82
2023/05/09 05:22:09;;;;;;;39.53;24.92;;;15.10;99.90;;;;;;5018083;28;20048;-82
2023/05/09 05:24:35;;;;;;;39.90;24.70;;;15.10;99.90;;;;;;5016784;28;20165;-82
2023/05/09 05:27:00;;;;;;;41.25;25.98;;;15.20;99.90;;;;;;5018278;28;20376;-82
2023/05/09 05:29:26;;;;;;;40.22;26.08;;;15.20;99.90;;;;;;5017985;28;20040;-83
2023/05/09 05:31:51;;;;;;;40.47;24.70;;;15.20;99.90;;;;;;5017442;28;21953;-82
2023/05/09 05:34:17;;;;;;;39.45;24.83;;;15.30;99.90;;;;;;5017018;28;20088;-82
2023/05/09 05:36:42;;;;;;;40.05;24.25;;;15.30;99.90;;;;;;5017323;28;20151;-82
2023/05/09 05:39:08;;;;;;;45.88;28.65;;;15.40;99.90;;;;;;5018172;28;20423;-82
2023/05/09 05:41:34;;;;;;;41.88;26.83;;;15.40;99.90;;;;;;5017764;28;20377;-81
2023/05/09 05:43:59;;;;;;;48.80;29.77;;;15.50;99.90;;;;;;5018677;28;20033;-82
2023/05/09 05:46:25;;;;;;;46.03;28.65;;;15.50;99.90;;;;;;5016619;28;20049;-83
2023/05/09 05:48:50;;;;;;;44.42;28.73;;;15.50;99.90;;;;;;5018065;28;20021;-83
2023/05/09 05:51:16;;;;;;;46.83;28.42;;;15.50;99.90;;;;;;5016854;28;20025;-83
2023/05/09 05:53:41;;;;;;;46.05;28.13;;;15.40;99.90;;;;;;5017181;28;20454;-82
2023/05/09 05:56:07;;;;;;;46.40;30.15;;;15.50;99.90;;;;;;5017697;28;20091;-82
2023/05/09 05:58:32;;;;;;;41.20;26.42;;;15.40;99.90;;;;;;5017651;28;20083;-82
2023/05/09 06:00:58;;;;;;;39.53;25.55;;;15.50;99.90;;;;;;5017744;28;20117;-82
2023/05/09 06:03:24;;;;;;;36.85;23.63;;;15.50;99.90;;;;;;5016470;28;20499;-83
2023/05/09 06:05:50;;;;;;;34.25;23.85;;;15.60;99.90;;;;;;5016769;28;20038;-82
2023/05/09 06:08:15;;;;;;;34.67;23.15;;;15.60;99.90;;;;;;5016837;28;20116;-82
2023/05/09 06:10:41;;;;;;;37.00;23.65;;;15.60;99.90;;;;;;5017481;28;20049;-83
2023/05/09 06:13:06;;;;;;;30.83;21.50;;;15.70;99.90;;;;;;5018657;28;20068;-82
2023/05/09 06:15:33;;;;;;;27.77;19.95;;;15.70;99.90;;;;;;5017998;28;20057;-82
2023/05/09 06:17:59;;;;;;;27.13;19.30;;;15.70;99.90;;;;;;5015583;28;20022;-82
2023/05/09 06:20:24;;;;;;;29.95;20.45;;;15.80;99.90;;;;;;5016057;28;20498;-82
2023/05/09 06:22:50;;;;;;;26.65;19.48;;;15.80;99.90;;;;;;5016316;28;20467;-81
2023/05/09 06:25:16;;;;;;;28.73;19.67;;;15.80;99.90;;;;;;5015520;28;20032;-82
2023/05/09 06:27:41;;;;;;;32.60;20.77;;;15.80;99.90;;;;;;5017471;28;20025;-82
2023/05/09 06:30:07;;;;;;;32.53;22.13;;;15.80;99.90;;;;;;5018102;28;20033;-82
2023/05/09 06:32:33;;;;;;;31.00;21.02;;;15.90;99.90;;;;;;5016516;28;20101;-84
2023/05/09 06:34:58;;;;;;;29.08;19.35;;;15.90;99.90;;;;;;5015971;28;20121;-83
2023/05/09 06:37:25;;;;;;;31.33;20.55;;;15.90;99.90;;;;;;5016080;28;20040;-82
2023/05/09 06:39:50;;;;;;;28.20;20.63;;;16.00;99.90;;;;;;5017495;28;20080;-82
2023/05/09 06:42:16;;;;;;;31.15;20.92;;;16.10;99.90;;;;;;5016442;28;20037;-84
2023/05/09 06:44:42;;;;;;;25.67;17.60;;;16.00;99.90;;;;;;5018308;28;20037;-84
2023/05/09 06:47:08;;;;;;;29.05;20.48;;;16.10;99.90;;;;;;5015520;28;20036;-84
2023/05/09 06:49:34;;;;;;;29.65;20.60;;;16.20;99.90;;;;;;5015022;28;20039;-83
2023/05/09 06:51:59;;;;;;;26.05;18.40;;;16.30;99.90;;;;;;5015044;28;20017;-84
2023/05/09 06:54:25;;;;;;;25.45;18.73;;;16.30;99.90;;;;;;5014856;28;20100;-84
2023/05/09 06:56:51;;;;;;;23.63;17.15;;;16.40;99.90;;;;;;5015486;28;20034;-83
2023/05/09 06:59:16;;;;;;;21.65;15.80;;;16.50;99.90;;;;;;5016946;28;20033;-83
2023/05/09 07:01:42;;;;;;;26.98;18.83;;;16.50;99.90;;;;;;5020687;28;20079;-85
2023/05/09 07:04:08;;;;;;;25.27;17.85;;;16.60;99.90;;;;;;5015115;28;20543;-84
2023/05/09 07:06:33;;;;;;;22.20;16.13;;;16.50;99.90;;;;;;5020377;28;20041;-84
2023/05/09 07:08:59;;;;;;;21.98;15.75;;;16.50;99.90;;;;;;5013897;28;20033;-85
2023/05/09 07:11:24;;;;;;;19.20;15.10;;;16.60;99.90;;;;;;5018950;28;20045;-86
2023/05/09 07:13:50;;;;;;;20.00;16.25;;;16.60;99.90;;;;;;5014774;28;20494;-87
2023/05/09 07:16:17;;;;;;;21.05;16.90;;;16.60;99.90;;;;;;5016206;28;20116;-83
2023/05/09 07:18:42;;;;;;;19.55;15.25;;;16.60;99.90;;;;;;5012955;28;20025;-85
2023/05/09 07:21:08;;;;;;;20.27;16.27;;;16.60;99.90;;;;;;5019140;28;20033;-87
2023/05/09 07:23:34;;;;;;;20.08;15.48;;;16.60;99.90;;;;;;5014526;28;20416;-83
2023/05/09 07:26:00;;;;;;;19.63;15.85;;;16.60;99.90;;;;;;5015334;28;20034;-84
2023/05/09 07:28:25;;;;;;;19.58;15.63;;;16.50;99.90;;;;;;5012618;28;20418;-84
2023/05/09 07:30:51;;;;;;;18.20;14.82;;;16.60;99.90;;;;;;5015641;28;20025;-84
2023/05/09 07:33:17;;;;;;;23.73;17.95;;;16.60;99.90;;;;;;5014919;28;20034;-84
2023/05/09 07:35:42;;;;;;;21.08;17.92;;;16.60;99.90;;;;;;5014888;28;20073;-84
2023/05/09 07:38:08;;;;;;;20.35;16.00;;;16.60;99.90;;;;;;5015390;28;20767;-84
2023/05/09 07:40:36;;;;;;;18.80;16.25;;;16.60;99.90;;;;;;5013352;28;20037;-84
2023/05/09 07:43:01;;;;;;;18.33;14.65;;;16.60;99.90;;;;;;5014940;28;20076;-84
2023/05/09 07:45:27;;;;;;;17.88;13.93;;;16.60;99.90;;;;;;5013662;28;22403;-83
2023/05/09 07:47:52;;;;;;;18.63;15.23;;;16.80;99.90;;;;;;5016330;28;20017;-87
2023/05/09 07:50:18;;;;;;;17.08;14.00;;;16.80;99.90;;;;;;5014170;28;20137;-87
2023/05/09 07:52:44;;;;;;;18.25;13.77;;;16.90;99.90;;;;;;5014285;28;20117;-87
2023/05/09 07:55:11;;;;;;;19.17;15.15;;;17.00;99.90;;;;;;5014970;28;20108;-85
2023/05/09 07:57:37;;;;;;;18.42;13.98;;;17.10;99.90;;;;;;5014645;28;20447;-84
2023/05/09 08:00:05;;;;;;;15.73;12.77;;;17.10;99.90;;;;;;5016226;28;20041;-85
2023/05/09 08:02:30;;;;;;;19.63;15.00;;;17.20;99.90;;;;;;5016249;28;20044;-84
2023/05/09 08:04:56;;;;;;;19.08;15.02;;;17.30;99.90;;;;;;5013599;28;20107;-85
2023/05/09 08:07:21;;;;;;;19.02;15.95;;;17.20;99.90;;;;;;5019023;28;20430;-85
2023/05/09 08:09:47;;;;;;;17.13;14.50;;;17.30;99.90;;;;;;5015190;28;20029;-84
2023/05/09 08:12:13;;;;;;;16.10;14.02;;;17.30;99.90;;;;;;5015381;28;20079;-83
2023/05/09 08:14:38;;;;;;;15.75;13.25;;;17.30;99.90;;;;;;5014879;28;20538;-84
2023/05/09 08:17:04;;;;;;;20.30;16.25;;;17.40;99.90;;;;;;5016981;28;20982;-85
2023/05/09 08:19:29;;;;;;;16.33;13.55;;;17.30;99.90;;;;;;5015992;28;20521;-86
2023/05/09 08:21:55;;;;;;;17.55;14.35;;;17.30;99.90;;;;;;5014691;28;20101;-85
2023/05/09 08:24:20;;;;;;;17.33;13.40;;;17.30;99.90;;;;;;5014497;28;20033;-85
2023/05/09 08:26:46;;;;;;;17.65;14.10;;;17.30;99.90;;;;;;5014238;28;20032;-82
2023/05/09 08:29:12;;;;;;;20.33;16.02;;;17.30;99.90;;;;;;5014818;28;20040;-84
2023/05/09 08:31:37;;;;;;;17.77;13.43;;;17.30;99.90;;;;;;5015705;28;20051;-84
2023/05/09 08:34:03;;;;;;;16.13;13.15;;;17.20;99.90;;;;;;5013385;28;20033;-84
2023/05/09 08:36:28;;;;;;;19.75;15.95;;;17.20;99.90;;;;;;5012977;28;20036;-84
2023/05/09 08:38:54;;;;;;;17.70;14.65;;;17.40;99.90;;;;;;5012431;28;20030;-83
2023/05/09 08:41:26;;;;;;;17.45;14.45;;;17.30;99.90;;;;;;5012433;28;20056;-83
2023/05/09 08:43:53;;;;;;;15.82;13.27;;;17.30;99.90;;;;;;5029133;28;20474;-84
2023/05/09 08:46:25;;;;;;;18.65;14.52;;;17.20;99.90;;;;;;5014285;28;20024;-84
2023/05/09 08:48:51;;;;;;;15.55;12.90;;;17.30;99.90;;;;;;5013455;28;20591;-83
2023/05/09 08:51:17;;;;;;;14.18;12.35;;;17.30;99.90;;;;;;5013378;28;20033;-83
2023/05/09 08:53:43;;;;;;;14.63;12.68;;;17.30;99.90;;;;;;5014262;28;20094;-83
2023/05/09 08:56:09;;;;;;;15.57;12.52;;;17.30;99.90;;;;;;5014578;28;20029;-83
2023/05/09 08:58:35;;;;;;;16.63;14.88;;;17.30;99.90;;;;;;5012821;28;20392;-84
2023/05/09 09:01:02;;;;;;;16.40;14.40;;;17.30;99.90;;;;;;5015054;28;20071;-83
2023/05/09 09:03:28;;;;;;;15.63;12.70;;;17.20;99.90;;;;;;5015460;28;20072;-83
2023/05/09 09:05:55;;;;;;;14.95;13.02;;;17.10;99.90;;;;;;5013381;28;20034;-83
2023/05/09 09:08:22;;;;;;;16.75;14.52;;;17.10;99.90;;;;;;5012786;28;20502;-84
2023/05/09 09:10:47;;;;;;;16.05;13.05;;;17.00;99.90;;;;;;5013712;28;20124;-83
2023/05/09 09:13:15;;;;;;;13.68;11.80;;;17.00;99.90;;;;;;5013711;28;20037;-83
2023/05/09 09:15:44;;;;;;;13.43;11.55;;;16.80;99.90;;;;;;5014899;28;20240;-83
2023/05/09 09:18:19;;;;;;;12.18;9.73;;;16.80;99.90;;;;;;5015524;28;20419;-83
2023/05/09 09:20:50;;;;;;;13.45;10.63;;;16.80;99.90;;;;;;5014314;28;20478;-83
2023/05/09 09:23:21;;;;;;;14.75;11.77;;;16.80;99.90;;;;;;5013081;28;20037;-83
2023/05/09 09:25:47;;;;;;;12.85;11.20;;;16.70;99.90;;;;;;5013978;28;20643;-83
2023/05/09 09:28:13;;;;;;;13.52;10.98;;;16.70;99.90;;;;;;5013145;28;20021;-82
2023/05/09 09:30:47;;;;;;;13.10;11.05;;;16.60;99.90;;;;;;5013216;28;20076;-82
2023/05/09 09:33:23;;;;;;;12.63;11.30;;;16.60;99.90;;;;;;5011724;28;20029;-82
2023/05/09 09:35:50;;;;;;;11.38;9.75;;;16.60;99.90;;;;;;5013543;28;20053;-83
2023/05/09 09:38:20;;;;;;;10.85;9.13;;;16.60;99.90;;;;;;5013362;28;20026;-83
2023/05/09 09:40:54;;;;;;;9.52;8.27;;;16.60;99.90;;;;;;5014137;28;20820;-83
2023/05/09 09:43:26;;;;;;;12.75;9.93;;;16.70;99.90;;;;;;5014087;28;20029;-83
2023/05/09 09:45:53;;;;;;;12.75;10.50;;;16.60;99.90;;;;;;5013995;28;20032;-83
2023/05/09 09:48:29;;;;;;;9.75;8.55;;;16.60;99.90;;;;;;5014484;28;20033;-83
2023/05/09 09:50:58;;;;;;;9.35;8.18;;;16.80;99.90;;;;;;5015629;28;20030;-85
2023/05/09 09:53:28;;;;;;;8.90;7.75;;;16.80;99.90;;;;;;5017178;28;20022;-83
2023/05/09 09:55:54;;;;;;;9.32;7.50;;;16.90;99.90;;;;;;5017936;28;20148;-84
2023/05/09 09:58:20;;;;;;;8.98;7.43;;;16.90;99.90;;;;;;5016625;28;20660;-82
2023/05/09 10:00:49;;;;;;;8.23;7.35;;;17.00;99.90;;;;;;5017351;28;20037;-82
2023/05/09 10:03:16;;;;;;;9.15;7.30;;;17.20;99.90;;;;;;5018273;28;20117;-84
2023/05/09 10:05:41;;;;;;;8.75;7.18;;;17.40;99.90;;;;;;5018070;28;20037;-84
2023/05/09 10:08:08;;;;;;;8.15;6.88;;;17.60;99.90;;;;;;5016123;28;20030;-83
2023/05/09 10:10:35;;;;;;;9.77;8.38;;;17.60;99.90;;;;;;5016100;28;20125;-84
2023/05/09 10:13:11;;;;;;;8.27;6.10;;;17.70;99.90;;;;;;5032780;28;20391;-84
2023/05/09 10:15:37;;;;;;;8.20;6.65;;;17.70;99.90;;;;;;5016804;28;20137;-84
2023/05/09 10:18:04;;;;;;;6.75;5.93;;;17.70;99.90;;;;;;5017968;28;20026;-83
2023/05/09 10:20:30;;;;;;;6.60;5.82;;;17.70;99.90;;;;;;5017914;28;20061;-83
2023/05/09 10:23:00;;;;;;;6.82;5.75;;;17.60;99.90;;;;;;5016709;28;20026;-84
2023/05/09 10:25:40;;;;;;;8.07;5.72;;;17.60;99.90;;;;;;5016314;28;20030;-84
2023/05/09 10:28:11;;;;;;;7.68;5.85;;;17.60;99.90;;;;;;5017193;28;20022;-82
2023/05/09 10:30:55;;;;;;;7.22;5.72;;;17.50;99.90;;;;;;5015585;28;20306;-83
2023/05/09 10:33:29;;;;;;;7.18;6.25;;;17.50;99.90;;;;;;5016074;28;20124;-83
2023/05/09 10:35:57;;;;;;;7.65;6.32;;;17.50;99.90;;;;;;5016252;28;20053;-82
2023/05/09 10:38:24;;;;;;;8.27;6.85;;;17.40;99.90;;;;;;5020465;28;20037;-83
2023/05/09 10:40:50;;;;;;;7.03;5.85;;;17.30;99.90;;;;;;5015405;28;20030;-83
2023/05/09 10:43:16;;;;;;;6.82;5.43;;;17.30;99.90;;;;;;5031406;28;20029;-83
2023/05/09 10:45:42;;;;;;;6.15;5.07;;;17.20;99.90;;;;;;5015451;28;20033;-83
2023/05/09 10:48:08;;;;;;;7.30;4.90;;;17.30;99.90;;;;;;5016322;28;20072;-83
2023/05/09 10:50:35;;;;;;;6.38;5.45;;;17.20;99.90;;;;;;5017372;28;20072;-82
2023/05/09 10:53:15;;;;;;;6.65;5.70;;;17.20;99.90;;;;;;5032395;28;20041;-82
2023/05/09 10:55:50;;;;;;;6.75;5.72;;;17.00;99.90;;;;;;5013328;28;20554;-83
2023/05/09 10:58:29;;;;;;;8.05;6.40;;;16.90;99.90;;;;;;5016829;28;20030;-84
2023/05/09 11:00:57;;;;;;;9.20;7.57;;;16.80;99.90;;;;;;5016061;28;20033;-83
2023/05/09 11:03:24;;;;;;;9.35;7.18;;;16.50;99.90;;;;;;5029813;28;20059;-84
2023/05/09 11:05:52;;;;;;;7.55;6.55;;;16.30;99.90;;;;;;5015137;28;20038;-84
2023/05/09 11:08:25;;;;;;;8.05;6.55;;;16.20;99.90;;;;;;5014515;28;20112;-84
2023/05/09 11:10:52;;;;;;;8.85;7.95;;;16.10;99.90;;;;;;5016080;28;20408;-81
2023/05/09 11:13:23;;;;;;;8.40;7.53;;;16.10;99.90;;;;;;5016071;28;20033;-80
2023/05/09 11:16:00;;;;;;;8.70;6.65;;;16.00;99.90;;;;;;5009453;28;20125;-80
2023/05/09 11:18:31;;;;;;;9.93;8.25;;;15.90;99.90;;;;;;5015376;28;20030;-81
2023/05/09 11:20:57;;;;;;;8.63;7.30;;;15.80;99.90;;;;;;5016631;28;20051;-80
2023/05/09 11:23:28;;;;;;;6.95;6.00;;;15.70;99.90;;;;;;5019822;28;20052;-81
2023/05/09 11:26:04;;;;;;;7.90;6.43;;;15.60;99.90;;;;;;5013511;28;20025;-80
2023/05/09 11:28:35;;;;;;;8.45;7.03;;;15.60;99.90;;;;;;5015077;28;20017;-80
2023/05/09 11:31:15;;;;;;;8.05;6.10;;;15.60;99.90;;;;;;5016358;28;20031;-80
2023/05/09 11:33:43;;;;;;;6.05;4.82;;;15.60;99.90;;;;;;5015443;28;20036;-82
2023/05/09 11:36:30;;;;;;;7.72;5.38;;;15.50;99.90;;;;;;5014633;28;20565;-81
2023/05/09 11:39:01;;;;;;;7.18;5.18;;;15.50;99.90;;;;;;5014172;28;20030;-80
2023/05/09 11:41:28;;;;;;;7.20;5.35;;;15.50;99.90;;;;;;5015166;28;20060;-80
2023/05/09 11:43:55;;;;;;;7.90;5.75;;;15.50;99.90;;;;;;5016987;28;20040;-81
2023/05/09 11:46:20;;;;;;;6.78;5.32;;;15.40;99.90;;;;;;5014551;28;20055;-81
2023/05/09 11:48:47;;;;;;;8.38;6.28;;;15.50;99.90;;;;;;5028415;28;20041;-81
2023/05/09 11:51:17;;;;;;;6.32;5.22;;;15.40;99.90;;;;;;5030359;28;20511;-83
2023/05/09 11:53:45;;;;;;;6.65;5.72;;;15.40;99.90;;;;;;5013186;28;20491;-83
2023/05/09 11:56:12;;;;;;;6.55;5.35;;;15.40;99.90;;;;;;5014818;28;20034;-81
2023/05/09 11:58:38;;;;;;;7.22;5.80;;;15.40;99.90;;;;;;5013448;28;20443;-81
2023/05/09 12:01:04;;;;;;;6.28;5.13;;;15.40;99.90;;;;;;5013642;28;20819;-82
2023/05/09 12:03:30;;;;;;;6.43;5.50;;;15.50;99.90;;;;;;5015040;28;20022;-82
2023/05/09 12:05:56;;;;;;;7.53;5.72;;;15.50;99.90;;;;;;5018380;28;20040;-81
2023/05/09 12:08:23;;;;;;;6.80;5.75;;;15.50;99.90;;;;;;5028226;28;20475;-83
2023/05/09 12:10:49;;;;;;;7.40;5.78;;;15.50;99.90;;;;;;5013182;28;20489;-81
2023/05/09 12:13:15;;;;;;;5.75;4.80;;;15.50;99.90;;;;;;5015301;28;20025;-80
2023/05/09 12:15:40;;;;;;;6.60;5.25;;;15.50;99.90;;;;;;5013236;28;20568;-80
2023/05/09 12:18:07;;;;;;;5.63;5.03;;;15.50;99.90;;;;;;5014463;28;20026;-81
2023/05/09 12:20:44;;;;;;;5.90;4.93;;;15.50;99.90;;;;;;5011639;28;20113;-82
2023/05/09 12:23:13;;;;;;;5.93;4.82;;;15.50;99.90;;;;;;5014218;28;20053;-82
2023/05/09 12:25:54;;;;;;;5.55;4.50;;;15.60;99.90;;;;;;5015795;28;20036;-82
2023/05/09 12:28:22;;;;;;;5.10;3.35;;;15.50;99.90;;;;;;5014022;28;20441;-81
2023/05/09 12:30:48;;;;;;;5.20;4.00;;;15.50;99.90;;;;;;5013505;28;20026;-81
2023/05/09 12:33:14;;;;;;;6.00;4.68;;;15.50;99.90;;;;;;5015690;28;20065;-82